Bethel Airport Airport (BET)

 

Airport Diagram
Current Weather/Forecast (VFR Conditions)
METAR PABE 312153Z 32017G25KT 10SM CLR M23/M27 A2944 RMK AO2 PK WND 31027/2112 SLP972 T12331272 $
TAF PABE 311733Z 3118/0118 33020G28KT P6SM SKC

All Charts

Inbound Traffic (Arrivals)

No inbound traffic.


Outbound Traffic (Departures)

No outbound traffic.